createdAt,value
2019-03-30T00:02:27.426Z,12.10
2019-03-30T00:05:00.507Z,10.93
2019-03-30T00:07:32.842Z,15.23
2019-03-30T00:10:05.676Z,15.57
2019-03-30T00:12:37.959Z,12.97
2019-03-30T00:15:13.570Z,17.83
2019-03-30T00:17:45.971Z,7.90
2019-03-30T00:20:19.439Z,6.20
2019-03-30T00:22:51.615Z,8.90
2019-03-30T00:25:23.870Z,11.77
2019-03-30T00:27:56.163Z,7.43
2019-03-30T00:30:28.449Z,7.43
2019-03-30T00:33:00.695Z,5.90
2019-03-30T00:35:32.934Z,4.83
2019-03-30T00:38:05.179Z,5.07
2019-03-30T00:40:37.437Z,3.97
2019-03-30T00:43:09.759Z,3.23
2019-03-30T00:45:42.011Z,2.77
2019-03-30T00:48:14.679Z,2.20
2019-03-30T00:50:47.409Z,2.40
2019-03-30T00:53:19.678Z,2.37
2019-03-30T00:55:52.136Z,2.70
2019-03-30T00:58:25.760Z,2.80
2019-03-30T01:00:58.568Z,2.80
2019-03-30T01:03:31.332Z,3.60
2019-03-30T01:06:04.800Z,3.73
2019-03-30T01:08:37.094Z,8.33
2019-03-30T01:11:09.367Z,4.03
2019-03-30T01:13:41.689Z,3.80
2019-03-30T01:16:16.585Z,3.00
2019-03-30T01:18:48.870Z,3.40
2019-03-30T01:21:23.171Z,2.90
2019-03-30T01:23:55.380Z,3.23
2019-03-30T01:26:28.219Z,2.90
2019-03-30T01:29:01.448Z,2.63
2019-03-30T01:31:34.165Z,3.03
2019-03-30T01:34:07.791Z,3.87
2019-03-30T01:36:39.985Z,3.27
2019-03-30T01:39:14.617Z,2.83
2019-03-30T01:41:46.867Z,2.80
2019-03-30T01:44:19.135Z,3.50
2019-03-30T01:46:53.178Z,3.10
2019-03-30T01:49:25.569Z,3.80
2019-03-30T01:51:57.750Z,3.10
2019-03-30T01:54:30.155Z,3.53
2019-03-30T01:57:03.097Z,2.10
2019-03-30T01:59:36.465Z,2.37
2019-03-30T02:02:08.648Z,2.77
2019-03-30T02:04:41.025Z,2.30
2019-03-30T02:07:13.237Z,2.70
2019-03-30T02:09:45.451Z,2.57
2019-03-30T02:12:18.042Z,2.60
2019-03-30T02:14:50.323Z,2.50
2019-03-30T02:17:23.267Z,2.60
2019-03-30T02:19:55.501Z,2.50
2019-03-30T02:22:27.741Z,2.97
2019-03-30T02:24:59.935Z,2.40
2019-03-30T02:27:33.205Z,3.50
2019-03-30T02:30:08.168Z,2.73
2019-03-30T02:32:40.685Z,2.97
2019-03-30T02:35:12.999Z,3.00
2019-03-30T02:37:45.217Z,2.73
2019-03-30T02:40:20.447Z,2.77
2019-03-30T02:42:52.812Z,2.70
2019-03-30T02:45:25.235Z,3.23
2019-03-30T02:47:57.561Z,2.80
2019-03-30T02:50:29.783Z,2.97
2019-03-30T02:53:01.974Z,3.10
2019-03-30T02:55:34.189Z,3.20
2019-03-30T02:58:06.417Z,2.80
2019-03-30T03:00:39.999Z,3.10
2019-03-30T03:03:12.516Z,3.00
2019-03-30T03:05:44.726Z,3.33
2019-03-30T03:08:17.411Z,3.17
2019-03-30T03:10:49.722Z,3.30
2019-03-30T03:13:22.520Z,3.80
2019-03-30T03:15:54.774Z,3.37
2019-03-30T03:18:29.447Z,3.00
2019-03-30T03:21:07.786Z,3.43
2019-03-30T03:23:36.224Z,2.97
2019-03-30T03:26:08.373Z,3.40
2019-03-30T03:28:40.464Z,3.40
2019-03-30T03:31:14.279Z,3.30
2019-03-30T03:33:47.132Z,3.97
2019-03-30T03:36:20.921Z,3.20
2019-03-30T03:38:53.150Z,4.10
2019-03-30T03:41:25.332Z,3.33
2019-03-30T03:43:57.697Z,3.60
2019-03-30T03:46:30.078Z,3.90
2019-03-30T03:49:02.298Z,3.90
2019-03-30T03:51:35.456Z,3.70
2019-03-30T03:54:08.012Z,4.60
2019-03-30T03:56:40.991Z,4.00
2019-03-30T03:59:13.880Z,3.50
2019-03-30T04:01:48.018Z,4.50
2019-03-30T04:04:22.009Z,5.10
2019-03-30T04:06:55.378Z,4.60
2019-03-30T04:09:29.558Z,4.60
2019-03-30T04:12:04.045Z,5.07
2019-03-30T04:14:39.198Z,5.23
2019-03-30T04:17:11.667Z,5.23
2019-03-30T04:19:43.987Z,5.20
2019-03-30T04:22:16.298Z,5.03
2019-03-30T04:24:49.343Z,5.23
2019-03-30T04:27:21.621Z,5.60
2019-03-30T04:29:54.063Z,5.57
2019-03-30T04:32:28.772Z,6.17
2019-03-30T04:35:34.020Z,5.40
2019-03-30T04:38:06.632Z,6.60
2019-03-30T04:40:38.849Z,6.23
2019-03-30T04:43:11.153Z,6.43
2019-03-30T04:45:43.349Z,6.47
2019-03-30T04:48:15.697Z,7.10
2019-03-30T04:50:47.944Z,6.47
2019-03-30T04:53:20.094Z,7.53
2019-03-30T04:55:52.297Z,6.83
2019-03-30T04:58:24.549Z,6.73
2019-03-30T05:00:58.444Z,6.53
2019-03-30T05:03:30.478Z,6.73
2019-03-30T05:06:02.797Z,7.23
2019-03-30T05:08:36.857Z,8.93
2019-03-30T05:11:11.793Z,8.20
2019-03-30T05:13:45.512Z,8.00
2019-03-30T05:16:17.796Z,7.67
2019-03-30T05:18:50.883Z,7.33
2019-03-30T05:21:23.125Z,7.33
2019-03-30T05:23:55.305Z,8.53
2019-03-30T05:26:27.611Z,8.63
2019-03-30T05:28:59.858Z,8.87
2019-03-30T05:31:32.707Z,7.43
2019-03-30T05:34:05.100Z,8.17
2019-03-30T05:36:37.440Z,8.50
2019-03-30T05:39:09.751Z,8.37
2019-03-30T05:41:41.986Z,7.43
2019-03-30T05:44:14.229Z,7.70
2019-03-30T05:46:46.673Z,8.17
2019-03-30T05:49:18.941Z,8.07
2019-03-30T05:51:51.196Z,8.10
2019-03-30T05:54:23.488Z,7.47
2019-03-30T05:56:57.265Z,7.43
2019-03-30T05:59:29.674Z,8.00
2019-03-30T06:02:01.952Z,7.73
2019-03-30T06:04:34.302Z,7.30
2019-03-30T06:07:06.545Z,7.90
2019-03-30T06:09:38.869Z,7.20
2019-03-30T06:12:11.921Z,7.77
2019-03-30T06:14:44.260Z,7.63
2019-03-30T06:17:16.621Z,7.53
2019-03-30T06:19:48.873Z,7.67
2019-03-30T06:22:21.214Z,7.83
2019-03-30T06:24:55.445Z,6.90
2019-03-30T06:27:27.804Z,7.47
2019-03-30T06:30:18.394Z,6.97
2019-03-30T06:32:50.711Z,7.90
2019-03-30T06:35:23.591Z,6.97
2019-03-30T06:37:56.137Z,6.73
2019-03-30T06:40:30.652Z,6.90
2019-03-30T06:43:02.602Z,7.63
2019-03-30T06:45:34.993Z,6.73
2019-03-30T06:48:07.965Z,7.07
2019-03-30T06:50:40.122Z,7.00
2019-03-30T06:53:12.593Z,7.80
2019-03-30T06:55:44.835Z,6.93
2019-03-30T06:58:17.041Z,6.97
2019-03-30T07:00:49.141Z,6.63
2019-03-30T07:03:21.630Z,6.57
2019-03-30T07:05:56.159Z,6.93
2019-03-30T07:08:33.897Z,7.37
2019-03-30T07:11:20.437Z,7.23
2019-03-30T07:13:42.872Z,6.90
2019-03-30T07:16:15.235Z,7.60
2019-03-30T07:18:47.739Z,6.67
2019-03-30T07:21:20.119Z,7.07
2019-03-30T07:23:54.494Z,7.13
2019-03-30T07:26:28.522Z,7.60
2019-03-30T07:29:01.656Z,7.40
2019-03-30T07:31:34.153Z,7.33
2019-03-30T07:34:06.740Z,7.40
2019-03-30T07:36:39.209Z,7.90
2019-03-30T07:39:11.789Z,8.30
2019-03-30T07:41:44.061Z,8.30
2019-03-30T07:44:16.416Z,7.73
2019-03-30T07:46:48.941Z,7.50
2019-03-30T07:49:21.236Z,8.17
2019-03-30T07:51:53.504Z,7.57
2019-03-30T07:54:30.488Z,8.30
2019-03-30T07:57:17.408Z,8.30
2019-03-30T07:59:52.500Z,8.30
2019-03-30T08:02:24.991Z,8.10
2019-03-30T08:04:59.628Z,8.23
2019-03-30T08:07:31.899Z,8.90
2019-03-30T08:10:04.243Z,8.90
2019-03-30T08:12:36.462Z,8.77
2019-03-30T08:15:11.531Z,8.60
2019-03-30T08:17:43.699Z,9.23
2019-03-30T08:20:16.394Z,7.27
2019-03-30T08:22:52.051Z,7.87
2019-03-30T08:25:24.431Z,7.53
2019-03-30T08:27:56.727Z,7.13
2019-03-30T08:30:29.082Z,8.70
2019-03-30T08:33:01.367Z,8.70
2019-03-30T08:35:36.910Z,7.37
2019-03-30T08:38:29.497Z,6.93
2019-03-30T08:41:21.424Z,7.23
2019-03-30T08:44:07.141Z,7.80
2019-03-30T08:46:42.269Z,9.50
2019-03-30T08:49:20.351Z,7.90
2019-03-30T08:51:52.552Z,7.20
2019-03-30T08:54:24.861Z,7.17
2019-03-30T08:56:57.303Z,6.20
2019-03-30T08:59:30.313Z,6.47
2019-03-30T09:02:02.635Z,7.03
2019-03-30T09:04:37.720Z,6.00
2019-03-30T09:07:10.398Z,7.63
2019-03-30T09:09:42.738Z,6.80
2019-03-30T09:12:17.807Z,13.07
2019-03-30T09:14:51.024Z,6.67
2019-03-30T09:17:24.929Z,7.70
2019-03-30T09:19:57.106Z,7.17
2019-03-30T09:22:32.249Z,6.97
2019-03-30T09:25:08.209Z,6.70
2019-03-30T09:27:41.850Z,6.77
2019-03-30T09:30:14.771Z,7.43
2019-03-30T09:32:50.784Z,6.07
2019-03-30T09:35:26.428Z,6.80
2019-03-30T09:38:00.892Z,6.90
2019-03-30T09:40:33.249Z,6.97
2019-03-30T09:43:05.595Z,7.43
2019-03-30T09:45:38.304Z,6.40
2019-03-30T09:48:10.644Z,7.77
2019-03-30T09:50:42.946Z,6.73
2019-03-30T09:53:15.196Z,6.90
2019-03-30T09:55:47.589Z,7.03
2019-03-30T09:58:19.852Z,7.33
2019-03-30T10:00:52.307Z,7.40
2019-03-30T10:03:24.597Z,6.97
2019-03-30T10:05:57.331Z,7.30
2019-03-30T10:08:29.610Z,7.30
2019-03-30T10:11:12.986Z,7.20
2019-03-30T10:13:45.354Z,7.27
2019-03-30T10:16:20.926Z,8.27
2019-03-30T10:18:54.036Z,8.13
2019-03-30T10:21:28.435Z,7.77
2019-03-30T10:24:00.811Z,6.73
2019-03-30T10:26:35.934Z,6.57
2019-03-30T10:29:08.452Z,7.43
2019-03-30T10:31:42.741Z,7.63
2019-03-30T10:34:15.929Z,6.37
2019-03-30T10:36:48.223Z,7.47
2019-03-30T10:39:20.434Z,7.03
2019-03-30T10:41:52.792Z,6.57
2019-03-30T10:44:25.796Z,7.40
2019-03-30T10:46:59.080Z,7.27
2019-03-30T10:49:31.309Z,6.07
2019-03-30T10:52:03.644Z,7.17
2019-03-30T10:54:35.927Z,7.70
2019-03-30T10:57:08.224Z,6.60
2019-03-30T10:59:40.533Z,8.10
2019-03-30T11:02:12.699Z,6.40
2019-03-30T11:04:45.960Z,6.43
2019-03-30T11:07:19.809Z,6.13
2019-03-30T11:09:52.847Z,7.33
2019-03-30T11:12:26.556Z,7.77
2019-03-30T11:14:58.935Z,7.27
2019-03-30T11:17:31.304Z,6.77
2019-03-30T11:20:03.676Z,7.50
2019-03-30T11:22:35.921Z,6.80
2019-03-30T11:25:09.567Z,6.87
2019-03-30T11:27:41.806Z,7.00
2019-03-30T11:30:15.316Z,7.57
2019-03-30T11:32:47.524Z,7.27
2019-03-30T11:35:19.952Z,7.10
2019-03-30T11:37:52.290Z,8.93
2019-03-30T11:40:24.697Z,7.63
2019-03-30T11:42:57.105Z,6.47
2019-03-30T11:45:29.616Z,6.37
2019-03-30T11:48:01.907Z,6.53
2019-03-30T11:50:34.431Z,6.77
2019-03-30T11:53:07.014Z,6.87
2019-03-30T11:55:39.446Z,7.83
2019-03-30T11:58:11.866Z,6.70
2019-03-30T12:00:44.141Z,7.13
2019-03-30T12:03:17.100Z,6.20
2019-03-30T12:05:49.499Z,7.10
2019-03-30T12:08:21.744Z,7.30
2019-03-30T12:10:53.987Z,6.97
2019-03-30T12:13:27.127Z,6.37
2019-03-30T12:15:59.418Z,6.50
2019-03-30T12:18:32.846Z,6.80
2019-03-30T12:21:05.221Z,6.57
2019-03-30T12:23:38.935Z,6.87
2019-03-30T12:26:11.285Z,6.43
2019-03-30T12:28:43.538Z,7.37
2019-03-30T12:31:15.690Z,6.83
2019-03-30T12:33:48.102Z,6.90
2019-03-30T12:36:20.489Z,6.33
2019-03-30T12:38:52.921Z,6.73
2019-03-30T12:41:25.207Z,6.43
2019-03-30T12:44:00.760Z,6.83
2019-03-30T12:46:33.015Z,6.27
2019-03-30T12:49:06.690Z,6.73
2019-03-30T12:51:40.423Z,6.20
2019-03-30T12:54:14.352Z,6.27
2019-03-30T12:56:47.490Z,6.93
2019-03-30T12:59:21.957Z,7.10
2019-03-30T13:01:54.322Z,6.70
2019-03-30T13:04:27.237Z,6.40
2019-03-30T13:06:59.553Z,7.20
2019-03-30T13:09:34.706Z,6.47
2019-03-30T13:12:07.202Z,6.10
2019-03-30T13:14:40.597Z,5.97
2019-03-30T13:17:12.993Z,7.17
2019-03-30T13:19:45.386Z,7.00
2019-03-30T13:22:17.631Z,7.13
2019-03-30T13:24:49.903Z,6.60
2019-03-30T13:27:22.126Z,6.30
2019-03-30T13:29:54.476Z,6.07
2019-03-30T13:32:27.795Z,7.00
2019-03-30T13:35:01.484Z,6.17
2019-03-30T13:37:33.923Z,7.00
2019-03-30T13:40:07.292Z,6.57
2019-03-30T13:42:40.468Z,7.07
2019-03-30T13:45:13.322Z,6.60
2019-03-30T13:47:45.456Z,6.53
2019-03-30T13:50:19.099Z,7.10
2019-03-30T13:52:56.263Z,5.50
2019-03-30T13:55:28.565Z,6.60
2019-03-30T13:58:02.176Z,6.73
2019-03-30T14:00:34.510Z,6.93
2019-03-30T14:03:06.920Z,6.27
2019-03-30T14:05:39.373Z,6.33
2019-03-30T14:08:14.528Z,8.63
2019-03-30T14:10:47.909Z,6.73
2019-03-30T14:13:20.230Z,6.97
2019-03-30T14:15:59.828Z,6.10
2019-03-30T14:18:36.317Z,6.27
2019-03-30T14:21:09.480Z,7.23
2019-03-30T14:23:43.577Z,6.57
2019-03-30T14:26:30.397Z,5.97
2019-03-30T14:28:51.635Z,5.67
2019-03-30T14:31:23.977Z,8.90
2019-03-30T14:33:58.008Z,7.47
2019-03-30T14:36:30.853Z,7.40
2019-03-30T14:39:07.607Z,7.47
2019-03-30T14:41:40.948Z,6.33
2019-03-30T14:44:14.040Z,6.90
2019-03-30T14:46:47.351Z,6.53
2019-03-30T14:49:20.972Z,6.27
2019-03-30T14:51:54.125Z,6.37
2019-03-30T14:54:26.774Z,6.67
2019-03-30T14:56:59.104Z,7.57
2019-03-30T14:59:31.396Z,6.00
2019-03-30T15:02:03.903Z,7.20
2019-03-30T15:04:36.340Z,7.40
2019-03-30T15:07:08.653Z,8.00
2019-03-30T15:09:40.936Z,7.27
2019-03-30T15:12:13.172Z,7.37
2019-03-30T15:14:46.229Z,6.60
2019-03-30T15:17:18.596Z,7.20
2019-03-30T15:19:50.883Z,6.67
2019-03-30T15:22:23.414Z,6.60
2019-03-30T15:24:55.717Z,6.30
2019-03-30T15:27:27.997Z,6.03
2019-03-30T15:30:00.498Z,6.20
2019-03-30T15:32:32.804Z,6.13
2019-03-30T15:35:05.308Z,6.07
2019-03-30T15:37:38.610Z,6.60
2019-03-30T15:40:12.323Z,7.03
2019-03-30T15:42:44.544Z,6.67
2019-03-30T15:45:17.131Z,7.20
2019-03-30T15:47:49.326Z,7.63
2019-03-30T15:50:21.768Z,6.80
2019-03-30T15:52:54.007Z,6.37
2019-03-30T15:55:26.378Z,7.57
2019-03-30T15:58:02.016Z,7.37
2019-03-30T16:00:34.614Z,6.40
2019-03-30T16:03:07.133Z,8.70
2019-03-30T16:05:39.356Z,8.70
2019-03-30T16:08:11.567Z,7.43
2019-03-30T16:10:43.979Z,8.83
2019-03-30T16:13:16.332Z,9.80
2019-03-30T16:15:48.858Z,6.80
2019-03-30T16:18:21.194Z,6.90
2019-03-30T16:20:53.660Z,7.97
2019-03-30T16:23:25.886Z,10.50
2019-03-30T16:25:58.144Z,20.93
2019-03-30T16:28:30.346Z,13.27
2019-03-30T16:31:03.344Z,13.40
2019-03-30T16:33:35.907Z,18.47
2019-03-30T16:36:08.370Z,17.27
2019-03-30T16:38:40.763Z,17.80
2019-03-30T16:41:13.179Z,15.27
2019-03-30T16:43:47.120Z,21.67
2019-03-30T16:46:19.387Z,9.93
2019-03-30T16:48:51.450Z,7.73
2019-03-30T16:51:23.725Z,10.13
2019-03-30T16:53:56.442Z,13.93
2019-03-30T16:56:28.782Z,9.60
2019-03-30T16:59:01.093Z,11.27
2019-03-30T17:01:33.403Z,22.03
2019-03-30T17:04:06.833Z,28.43
2019-03-30T17:06:40.478Z,29.27
2019-03-30T17:09:12.815Z,31.57
2019-03-30T17:11:45.180Z,24.93
2019-03-30T17:14:17.496Z,25.33
2019-03-30T17:16:49.894Z,19.77
2019-03-30T17:19:22.122Z,14.57
2019-03-30T17:21:54.391Z,17.20
2019-03-30T17:24:26.816Z,25.33
2019-03-30T17:26:59.110Z,25.70
2019-03-30T17:29:31.521Z,24.93
2019-03-30T17:32:03.871Z,29.43
2019-03-30T17:34:36.905Z,28.27
2019-03-30T17:37:09.192Z,21.60
2019-03-30T17:39:41.674Z,19.43
2019-03-30T17:42:13.838Z,19.40
2019-03-30T17:44:46.158Z,15.13
2019-03-30T17:47:19.034Z,19.73
2019-03-30T17:49:51.356Z,20.13
2019-03-30T17:52:23.736Z,15.47
2019-03-30T17:54:56.168Z,13.60
2019-03-30T17:57:28.579Z,16.93
2019-03-30T18:00:00.966Z,15.43
2019-03-30T18:02:33.375Z,17.80
2019-03-30T18:05:05.734Z,14.77
2019-03-30T18:07:39.212Z,12.97
2019-03-30T18:10:13.374Z,14.27
2019-03-30T18:12:46.980Z,14.40
2019-03-30T18:15:19.439Z,14.30
2019-03-30T18:17:51.938Z,16.20
2019-03-30T18:20:25.510Z,17.33
2019-03-30T18:22:58.620Z,17.10
2019-03-30T18:25:33.623Z,17.73
2019-03-30T18:28:05.979Z,17.47
2019-03-30T18:30:40.392Z,16.07
2019-03-30T18:33:14.495Z,13.27
2019-03-30T18:35:47.102Z,14.23
2019-03-30T18:38:20.130Z,14.07
2019-03-30T18:40:52.920Z,12.10
2019-03-30T18:43:26.944Z,10.67
2019-03-30T18:45:59.391Z,10.23
2019-03-30T18:48:31.762Z,16.17
2019-03-30T18:51:04.169Z,27.90
2019-03-30T18:53:38.353Z,49.30
2019-03-30T18:56:10.567Z,31.43
2019-03-30T18:58:43.714Z,37.37
2019-03-30T19:01:16.476Z,65.37
2019-03-30T19:03:50.237Z,55.20
2019-03-30T19:06:24.004Z,40.23
2019-03-30T19:08:56.509Z,31.57
2019-03-30T19:11:28.933Z,31.10
2019-03-30T19:14:01.230Z,29.40
2019-03-30T19:16:33.646Z,31.00
2019-03-30T19:19:06.647Z,25.57
2019-03-30T19:21:39.115Z,29.10
2019-03-30T19:24:11.395Z,46.40
2019-03-30T19:26:44.866Z,47.93
2019-03-30T19:29:17.193Z,36.90
2019-03-30T19:31:50.062Z,27.03
2019-03-30T19:34:22.396Z,32.17
2019-03-30T19:36:56.206Z,27.13
2019-03-30T19:39:28.543Z,21.43
2019-03-30T19:42:00.781Z,20.93
2019-03-30T19:44:33.164Z,19.23
2019-03-30T19:47:05.208Z,24.30
2019-03-30T19:49:37.877Z,23.13
2019-03-30T19:52:10.400Z,25.27
2019-03-30T19:54:42.865Z,20.10
2019-03-30T19:57:15.061Z,19.70
2019-03-30T19:59:48.611Z,19.73
2019-03-30T20:02:20.919Z,19.30
2019-03-30T20:04:53.614Z,29.07
2019-03-30T20:07:25.836Z,27.87
2019-03-30T20:09:58.210Z,21.27
2019-03-30T20:12:32.853Z,18.77
2019-03-30T20:15:05.267Z,18.43
2019-03-30T20:17:39.159Z,17.83
2019-03-30T20:20:11.637Z,16.87
2019-03-30T20:22:43.995Z,18.03
2019-03-30T20:25:16.298Z,22.57
2019-03-30T20:27:48.987Z,23.27
2019-03-30T20:30:24.249Z,20.77
2019-03-30T20:33:05.420Z,22.53
2019-03-30T20:35:37.820Z,30.03
2019-03-30T20:38:10.305Z,26.43
2019-03-30T20:40:42.633Z,18.80
2019-03-30T20:43:16.452Z,19.43
2019-03-30T20:45:48.468Z,23.43
2019-03-30T20:48:21.856Z,27.43
2019-03-30T20:50:54.104Z,27.93
2019-03-30T20:53:26.684Z,38.63
2019-03-30T20:55:58.896Z,29.80
2019-03-30T20:58:31.223Z,23.43
2019-03-30T21:01:03.645Z,26.07
2019-03-30T21:03:35.991Z,27.23
2019-03-30T21:06:08.200Z,21.30
2019-03-30T21:08:40.515Z,23.87
2019-03-30T21:11:13.093Z,27.80
2019-03-30T21:13:46.050Z,19.03
2019-03-30T21:16:18.375Z,23.03
2019-03-30T21:18:50.670Z,21.97
2019-03-30T21:21:22.890Z,17.87
2019-03-30T21:23:56.992Z,17.10
2019-03-30T21:26:29.097Z,13.53
2019-03-30T21:29:03.775Z,23.70
2019-03-30T21:31:36.164Z,23.93
2019-03-30T21:34:08.687Z,11.50
2019-03-30T21:36:41.974Z,10.70
2019-03-30T21:39:14.065Z,9.10
2019-03-30T21:41:46.374Z,7.80
2019-03-30T21:44:22.162Z,8.03
2019-03-30T21:46:54.547Z,7.57
2019-03-30T21:49:30.893Z,10.13
2019-03-30T21:52:04.052Z,11.50
2019-03-30T21:54:36.091Z,11.53
2019-03-30T21:57:09.397Z,10.13
2019-03-30T21:59:42.042Z,8.87
2019-03-30T22:02:15.813Z,8.63
2019-03-30T22:04:48.684Z,8.43
2019-03-30T22:07:20.657Z,7.17
2019-03-30T22:09:53.333Z,7.10
2019-03-30T22:12:26.798Z,7.67
2019-03-30T22:14:59.349Z,7.37
2019-03-30T22:17:31.906Z,7.40
2019-03-30T22:20:04.437Z,6.47
2019-03-30T22:22:37.264Z,7.73
2019-03-30T22:25:09.692Z,6.97
2019-03-30T22:27:42.077Z,7.33
2019-03-30T22:30:24.762Z,6.90
2019-03-30T22:32:51.020Z,8.70
2019-03-30T22:35:23.345Z,8.80
2019-03-30T22:37:55.692Z,7.90
2019-03-30T22:40:28.072Z,8.60
2019-03-30T22:43:00.380Z,7.27
2019-03-30T22:45:32.771Z,7.50
2019-03-30T22:48:05.316Z,6.90
2019-03-30T22:50:37.685Z,7.13
2019-03-30T22:53:10.022Z,6.83
2019-03-30T22:55:42.740Z,6.43
2019-03-30T22:58:15.547Z,6.77
2019-03-30T23:00:59.653Z,6.73
2019-03-30T23:03:32.162Z,6.70
2019-03-30T23:06:04.459Z,7.10
2019-03-30T23:08:36.815Z,8.07
2019-03-30T23:11:09.283Z,9.07
2019-03-30T23:13:41.584Z,8.87
2019-03-30T23:16:13.908Z,8.77
2019-03-30T23:18:47.414Z,8.90
2019-03-30T23:21:20.111Z,8.87
2019-03-30T23:23:52.445Z,9.23
2019-03-30T23:26:24.841Z,8.57
2019-03-30T23:28:59.390Z,8.43
2019-03-30T23:31:33.505Z,7.97
2019-03-30T23:34:05.851Z,7.67
2019-03-30T23:36:39.047Z,7.37
2019-03-30T23:39:11.457Z,8.93
2019-03-30T23:41:43.813Z,8.90
2019-03-30T23:44:16.067Z,8.47
2019-03-30T23:46:48.423Z,8.87
2019-03-30T23:49:21.105Z,9.50
2019-03-30T23:51:53.817Z,8.70
2019-03-30T23:54:26.138Z,8.50
2019-03-30T23:57:00.232Z,9.77
2019-03-30T23:59:33.706Z,8.93
